JAL3087 RJAA-RJGG
Flight info
| Callsign | JAL3087 |
|---|---|
| Flight time | 0h 46m |
| Altitude | 28000 |
| Route | PIGOK Y50 OLTOM |
| Aircraft | B738/M-SDE2E3FGHIRWXY/LB1 |
Departure
| Time | 2026-05-04 13:51 |
|---|---|
| Airport | Narita International Airport (RJAA) |
Arrival
| Time | 2026-05-04 14:38 |
|---|---|
| Airport | Chubu Centrair International Airport (RJGG) |
| Time | Latitude | Longitude | Altitude | Speed | Heading |
|---|---|---|---|---|---|
| 2026-05-04 13:25 | 35.77315 | 140.39345 | 143 ft | 0 kts | 14° |
| 2026-05-04 13:38 | 35.77312 | 140.39344 | 143 ft | 2 kts | 14° |
| 2026-05-04 13:38 | 35.77296 | 140.39339 | 143 ft | 2 kts | 14° |
| 2026-05-04 13:38 | 35.77280 | 140.39334 | 143 ft | 2 kts | 15° |
| 2026-05-04 13:38 | 35.77265 | 140.39328 | 143 ft | 2 kts | 22° |
| 2026-05-04 13:39 | 35.77250 | 140.39319 | 143 ft | 2 kts | 41° |
| 2026-05-04 13:39 | 35.77240 | 140.39303 | 143 ft | 2 kts | 71° |
| 2026-05-04 13:39 | 35.77238 | 140.39283 | 143 ft | 2 kts | 106° |
| 2026-05-04 13:39 | 35.77247 | 140.39268 | 143 ft | 2 kts | 155° |
| 2026-05-04 13:40 | 35.77262 | 140.39260 | 143 ft | 2 kts | 156° |
| 2026-05-04 13:40 | 35.77277 | 140.39252 | 143 ft | 2 kts | 157° |
| 2026-05-04 13:40 | 35.77293 | 140.39244 | 143 ft | 2 kts | 156° |
| 2026-05-04 13:40 | 35.77307 | 140.39236 | 143 ft | 2 kts | 151° |
| 2026-05-04 13:41 | 35.77308 | 140.39235 | 143 ft | 0 kts | 151° |
| 2026-05-04 13:43 | 35.77291 | 140.39247 | 143 ft | 6 kts | 150° |
| 2026-05-04 13:43 | 35.77230 | 140.39290 | 143 ft | 13 kts | 150° |
| 2026-05-04 13:43 | 35.77164 | 140.39358 | 143 ft | 13 kts | 121° |
| 2026-05-04 13:43 | 35.77172 | 140.39454 | 143 ft | 12 kts | 41° |
| 2026-05-04 13:44 | 35.77248 | 140.39501 | 143 ft | 12 kts | 24° |
| 2026-05-04 13:44 | 35.77323 | 140.39543 | 143 ft | 12 kts | 25° |
| 2026-05-04 13:44 | 35.77399 | 140.39566 | 143 ft | 11 kts | 339° |
| 2026-05-04 13:44 | 35.77467 | 140.39519 | 143 ft | 11 kts | 330° |
| 2026-05-04 13:45 | 35.77534 | 140.39472 | 143 ft | 11 kts | 331° |
| 2026-05-04 13:45 | 35.77597 | 140.39425 | 143 ft | 11 kts | 330° |
| 2026-05-04 13:45 | 35.77663 | 140.39393 | 143 ft | 10 kts | 4° |
| 2026-05-04 13:45 | 35.77709 | 140.39454 | 143 ft | 10 kts | 58° |
| 2026-05-04 13:46 | 35.77747 | 140.39523 | 143 ft | 10 kts | 36° |
| 2026-05-04 13:46 | 35.77811 | 140.39511 | 143 ft | 10 kts | 330° |
| 2026-05-04 13:46 | 35.77862 | 140.39462 | 143 ft | 9 kts | 308° |
| 2026-05-04 13:46 | 35.77887 | 140.39388 | 143 ft | 9 kts | 295° |
| 2026-05-04 13:47 | 35.77916 | 140.39319 | 143 ft | 9 kts | 298° |
| 2026-05-04 13:47 | 35.77947 | 140.39245 | 143 ft | 11 kts | 295° |
| 2026-05-04 13:47 | 35.77994 | 140.39159 | 143 ft | 14 kts | 326° |
| 2026-05-04 13:47 | 35.78084 | 140.39115 | 143 ft | 14 kts | 4° |
| 2026-05-04 13:48 | 35.78151 | 140.39190 | 142 ft | 14 kts | 31° |
| 2026-05-04 13:48 | 35.78240 | 140.39179 | 142 ft | 13 kts | 344° |
| 2026-05-04 13:48 | 35.78326 | 140.39151 | 142 ft | 13 kts | 345° |
| 2026-05-04 13:48 | 35.78410 | 140.39126 | 142 ft | 12 kts | 348° |
| 2026-05-04 13:49 | 35.78492 | 140.39105 | 143 ft | 11 kts | 350° |
| 2026-05-04 13:49 | 35.78517 | 140.39103 | 143 ft | 0 kts | 6° |
| 2026-05-04 13:50 | 35.78518 | 140.39103 | 143 ft | 1 kts | 6° |
| 2026-05-04 13:50 | 35.78539 | 140.39113 | 142 ft | 7 kts | 34° |
| 2026-05-04 13:50 | 35.78590 | 140.39180 | 141 ft | 14 kts | 22° |
| 2026-05-04 13:51 | 35.78702 | 140.39120 | 140 ft | 32 kts | 330° |
| 2026-05-04 13:51 | 35.79168 | 140.38787 | 144 ft | 121 kts | 330° |
| 2026-05-04 13:51 | 35.80105 | 140.38117 | 308 ft | 180 kts | 329° |
| 2026-05-04 13:51 | 35.81150 | 140.37335 | 1454 ft | 172 kts | 326° |
| 2026-05-04 13:52 | 35.83224 | 140.35843 | 3012 ft | 196 kts | 326° |
| 2026-05-04 13:52 | 35.84455 | 140.34952 | 3481 ft | 218 kts | 326° |
| 2026-05-04 13:52 | 35.85817 | 140.33965 | 4169 ft | 231 kts | 326° |
| 2026-05-04 13:53 | 35.87217 | 140.32951 | 5115 ft | 237 kts | 326° |
| 2026-05-04 13:53 | 35.88667 | 140.31903 | 5934 ft | 247 kts | 326° |
| 2026-05-04 13:53 | 35.90237 | 140.30935 | 6730 ft | 258 kts | 334° |
| 2026-05-04 13:54 | 35.94022 | 140.30671 | 7130 ft | 291 kts | 11° |
| 2026-05-04 13:54 | 35.95816 | 140.31753 | 7080 ft | 293 kts | 32° |
| 2026-05-04 13:54 | 35.97993 | 140.35848 | 7363 ft | 295 kts | 76° |
| 2026-05-04 13:55 | 35.98079 | 140.38429 | 7819 ft | 309 kts | 99° |
| 2026-05-04 13:55 | 35.96231 | 140.43126 | 9788 ft | 304 kts | 132° |
| 2026-05-04 13:55 | 35.94845 | 140.45052 | 10436 ft | 307 kts | 147° |
| 2026-05-04 13:56 | 35.92986 | 140.46450 | 10665 ft | 321 kts | 166° |
| 2026-05-04 13:56 | 35.90773 | 140.47065 | 10866 ft | 334 kts | 184° |
| 2026-05-04 13:56 | 35.86068 | 140.46056 | 11632 ft | 353 kts | 201° |
| 2026-05-04 13:57 | 35.83693 | 140.45231 | 12405 ft | 355 kts | 202° |
| 2026-05-04 13:57 | 35.81322 | 140.44414 | 13253 ft | 356 kts | 202° |
| 2026-05-04 13:58 | 35.74305 | 140.41513 | 15210 ft | 347 kts | 224° |
| 2026-05-04 13:58 | 35.71841 | 140.36606 | 16568 ft | 339 kts | 245° |
| 2026-05-04 13:58 | 35.70718 | 140.34040 | 17203 ft | 342 kts | 240° |
| 2026-05-04 13:59 | 35.69350 | 140.31631 | 17810 ft | 346 kts | 234° |
| 2026-05-04 13:59 | 35.67761 | 140.29382 | 18316 ft | 350 kts | 230° |
| 2026-05-04 13:59 | 35.64187 | 140.25265 | 19466 ft | 352 kts | 225° |
| 2026-05-04 14:00 | 35.62316 | 140.23330 | 20040 ft | 352 kts | 224° |
| 2026-05-04 14:00 | 35.58503 | 140.19535 | 21066 ft | 353 kts | 223° |
| 2026-05-04 14:00 | 35.56573 | 140.17642 | 21544 ft | 354 kts | 223° |
| 2026-05-04 14:01 | 35.54640 | 140.15752 | 22010 ft | 356 kts | 223° |
| 2026-05-04 14:01 | 35.52700 | 140.13856 | 22460 ft | 357 kts | 223° |
| 2026-05-04 14:01 | 35.48809 | 140.10057 | 23323 ft | 358 kts | 223° |
| 2026-05-04 14:02 | 35.46860 | 140.08155 | 23660 ft | 359 kts | 223° |
| 2026-05-04 14:02 | 35.44902 | 140.06245 | 23959 ft | 360 kts | 223° |
| 2026-05-04 14:02 | 35.42939 | 140.04330 | 24251 ft | 362 kts | 223° |
| 2026-05-04 14:02 | 35.40991 | 140.02432 | 24553 ft | 363 kts | 223° |
| 2026-05-04 14:03 | 35.39012 | 140.00504 | 24855 ft | 364 kts | 223° |
| 2026-05-04 14:03 | 35.37026 | 139.98572 | 25095 ft | 366 kts | 223° |
| 2026-05-04 14:03 | 35.35049 | 139.96602 | 25282 ft | 367 kts | 226° |
| 2026-05-04 14:03 | 35.33330 | 139.94301 | 25515 ft | 366 kts | 233° |
| 2026-05-04 14:04 | 35.30416 | 139.89180 | 26018 ft | 368 kts | 240° |
| 2026-05-04 14:04 | 35.29299 | 139.86349 | 26187 ft | 373 kts | 246° |
| 2026-05-04 14:04 | 35.28369 | 139.83382 | 26364 ft | 375 kts | 247° |
| 2026-05-04 14:05 | 35.26518 | 139.77431 | 27027 ft | 373 kts | 247° |
| 2026-05-04 14:05 | 35.25585 | 139.74453 | 27174 ft | 376 kts | 247° |
| 2026-05-04 14:05 | 35.24642 | 139.71455 | 27354 ft | 378 kts | 246° |
| 2026-05-04 14:06 | 35.23693 | 139.68448 | 27564 ft | 379 kts | 246° |
| 2026-05-04 14:06 | 35.22745 | 139.65452 | 27798 ft | 377 kts | 246° |
| 2026-05-04 14:06 | 35.21796 | 139.62455 | 27805 ft | 378 kts | 246° |
| 2026-05-04 14:06 | 35.20848 | 139.59462 | 27855 ft | 377 kts | 246° |
| 2026-05-04 14:07 | 35.19899 | 139.56475 | 27837 ft | 376 kts | 246° |
| 2026-05-04 14:07 | 35.18972 | 139.53489 | 27837 ft | 376 kts | 249° |
| 2026-05-04 14:07 | 35.18289 | 139.50391 | 27844 ft | 378 kts | 253° |
| 2026-05-04 14:07 | 35.17841 | 139.47224 | 27822 ft | 381 kts | 258° |
| 2026-05-04 14:08 | 35.17663 | 139.43981 | 27830 ft | 382 kts | 261° |
| 2026-05-04 14:08 | 35.17525 | 139.40735 | 27819 ft | 382 kts | 261° |
| 2026-05-04 14:08 | 35.17385 | 139.37492 | 27823 ft | 382 kts | 261° |
| 2026-05-04 14:08 | 35.17242 | 139.34252 | 27829 ft | 382 kts | 261° |
| 2026-05-04 14:09 | 35.16945 | 139.27773 | 27823 ft | 381 kts | 260° |
| 2026-05-04 14:09 | 35.16794 | 139.24537 | 27827 ft | 381 kts | 260° |
| 2026-05-04 14:10 | 35.16486 | 139.18067 | 27830 ft | 381 kts | 260° |
| 2026-05-04 14:10 | 35.16383 | 139.15923 | 27825 ft | 381 kts | 260° |
| 2026-05-04 14:10 | 35.16227 | 139.12688 | 27823 ft | 381 kts | 260° |
| 2026-05-04 14:10 | 35.16070 | 139.09457 | 27818 ft | 381 kts | 260° |
| 2026-05-04 14:11 | 35.15914 | 139.06233 | 27871 ft | 379 kts | 260° |
| 2026-05-04 14:11 | 35.15598 | 138.99800 | 27844 ft | 380 kts | 260° |
| 2026-05-04 14:11 | 35.15386 | 138.95530 | 27860 ft | 381 kts | 260° |
| 2026-05-04 14:12 | 35.15276 | 138.93339 | 27847 ft | 382 kts | 260° |
| 2026-05-04 14:12 | 35.15114 | 138.90101 | 27845 ft | 382 kts | 260° |
| 2026-05-04 14:12 | 35.14787 | 138.83622 | 27837 ft | 382 kts | 261° |
| 2026-05-04 14:13 | 35.14623 | 138.80387 | 27846 ft | 382 kts | 260° |
| 2026-05-04 14:13 | 35.14458 | 138.77147 | 27841 ft | 382 kts | 260° |
| 2026-05-04 14:13 | 35.14292 | 138.73911 | 27839 ft | 382 kts | 260° |
| 2026-05-04 14:13 | 35.14128 | 138.70721 | 27845 ft | 381 kts | 260° |
| 2026-05-04 14:14 | 35.13960 | 138.67484 | 27848 ft | 381 kts | 260° |
| 2026-05-04 14:14 | 35.13624 | 138.61039 | 27843 ft | 381 kts | 260° |
| 2026-05-04 14:14 | 35.13454 | 138.57804 | 27854 ft | 382 kts | 260° |
| 2026-05-04 14:15 | 35.13111 | 138.51325 | 27859 ft | 381 kts | 260° |
| 2026-05-04 14:15 | 35.12767 | 138.44862 | 27859 ft | 381 kts | 260° |
| 2026-05-04 14:16 | 35.12423 | 138.38468 | 27247 ft | 371 kts | 260° |
| 2026-05-04 14:16 | 35.12254 | 138.35328 | 26268 ft | 372 kts | 260° |
| 2026-05-04 14:17 | 35.11893 | 138.28914 | 24106 ft | 381 kts | 262° |
| 2026-05-04 14:17 | 35.11744 | 138.25741 | 23935 ft | 362 kts | 262° |
| 2026-05-04 14:17 | 35.11403 | 138.19708 | 23867 ft | 361 kts | 261° |
| 2026-05-04 14:18 | 35.11216 | 138.16619 | 23881 ft | 369 kts | 262° |
| 2026-05-04 14:18 | 35.10848 | 138.10233 | 23856 ft | 383 kts | 262° |
| 2026-05-04 14:19 | 35.10475 | 138.03719 | 23407 ft | 381 kts | 262° |
| 2026-05-04 14:19 | 35.10286 | 138.00495 | 23080 ft | 381 kts | 262° |
| 2026-05-04 14:19 | 35.10099 | 137.97280 | 22824 ft | 378 kts | 262° |
| 2026-05-04 14:19 | 35.09913 | 137.94085 | 22585 ft | 376 kts | 262° |
| 2026-05-04 14:20 | 35.09727 | 137.90910 | 22337 ft | 376 kts | 262° |
| 2026-05-04 14:20 | 35.09539 | 137.87727 | 22141 ft | 376 kts | 262° |
| 2026-05-04 14:20 | 35.09347 | 137.84534 | 21861 ft | 377 kts | 263° |
| 2026-05-04 14:21 | 35.08955 | 137.78128 | 21336 ft | 379 kts | 263° |
| 2026-05-04 14:21 | 35.08762 | 137.74917 | 21099 ft | 380 kts | 263° |
| 2026-05-04 14:21 | 35.08573 | 137.71694 | 20850 ft | 380 kts | 263° |
| 2026-05-04 14:21 | 35.08380 | 137.68516 | 20618 ft | 380 kts | 262° |
| 2026-05-04 14:22 | 35.08001 | 137.65348 | 20371 ft | 377 kts | 257° |
| 2026-05-04 14:22 | 35.07290 | 137.62274 | 20129 ft | 375 kts | 250° |
| 2026-05-04 14:22 | 35.06392 | 137.59289 | 19905 ft | 374 kts | 250° |
| 2026-05-04 14:22 | 35.05525 | 137.56320 | 19262 ft | 370 kts | 250° |
| 2026-05-04 14:23 | 35.03839 | 137.50472 | 17852 ft | 360 kts | 250° |
| 2026-05-04 14:23 | 35.03009 | 137.47610 | 17127 ft | 356 kts | 251° |
| 2026-05-04 14:23 | 35.02196 | 137.44787 | 16470 ft | 350 kts | 251° |
| 2026-05-04 14:24 | 35.01452 | 137.41969 | 15785 ft | 347 kts | 253° |
| 2026-05-04 14:24 | 35.00757 | 137.39174 | 15128 ft | 344 kts | 254° |
| 2026-05-04 14:24 | 35.00075 | 137.36392 | 14482 ft | 340 kts | 254° |
| 2026-05-04 14:24 | 34.99395 | 137.33639 | 13886 ft | 338 kts | 254° |
| 2026-05-04 14:25 | 34.98715 | 137.30904 | 13201 ft | 336 kts | 255° |
| 2026-05-04 14:25 | 34.97362 | 137.25514 | 12009 ft | 329 kts | 255° |
| 2026-05-04 14:25 | 34.96686 | 137.22848 | 11400 ft | 331 kts | 255° |
| 2026-05-04 14:26 | 34.96011 | 137.20188 | 11169 ft | 322 kts | 256° |
| 2026-05-04 14:26 | 34.95350 | 137.17593 | 11006 ft | 321 kts | 256° |
| 2026-05-04 14:26 | 34.94692 | 137.15006 | 10866 ft | 316 kts | 256° |
| 2026-05-04 14:26 | 34.94060 | 137.12534 | 10742 ft | 302 kts | 256° |
| 2026-05-04 14:27 | 34.93440 | 137.10111 | 10614 ft | 289 kts | 256° |
| 2026-05-04 14:27 | 34.92852 | 137.07816 | 10491 ft | 278 kts | 257° |
| 2026-05-04 14:27 | 34.92290 | 137.05617 | 10378 ft | 267 kts | 257° |
| 2026-05-04 14:27 | 34.91748 | 137.03500 | 10267 ft | 257 kts | 257° |
| 2026-05-04 14:28 | 34.91232 | 137.01485 | 10163 ft | 248 kts | 257° |
| 2026-05-04 14:28 | 34.90729 | 136.99517 | 10053 ft | 239 kts | 257° |
| 2026-05-04 14:28 | 34.90241 | 136.97611 | 9853 ft | 235 kts | 257° |
| 2026-05-04 14:28 | 34.89757 | 136.95719 | 9592 ft | 233 kts | 258° |
| 2026-05-04 14:29 | 34.88801 | 136.91984 | 9046 ft | 229 kts | 258° |
| 2026-05-04 14:29 | 34.87856 | 136.88303 | 8537 ft | 227 kts | 258° |
| 2026-05-04 14:30 | 34.87381 | 136.86447 | 8312 ft | 232 kts | 258° |
| 2026-05-04 14:30 | 34.86891 | 136.84541 | 8052 ft | 239 kts | 258° |
| 2026-05-04 14:30 | 34.85880 | 136.80622 | 7488 ft | 242 kts | 259° |
| 2026-05-04 14:31 | 34.85483 | 136.78651 | 7203 ft | 238 kts | 265° |
| 2026-05-04 14:31 | 34.84857 | 136.74705 | 6641 ft | 237 kts | 265° |
| 2026-05-04 14:32 | 34.85486 | 136.71065 | 6103 ft | 220 kts | 310° |
| 2026-05-04 14:32 | 34.86605 | 136.69820 | 5837 ft | 219 kts | 327° |
| 2026-05-04 14:32 | 34.88011 | 136.69153 | 5597 ft | 215 kts | 345° |
| 2026-05-04 14:32 | 34.89413 | 136.68824 | 5498 ft | 196 kts | 345° |
| 2026-05-04 14:33 | 34.90693 | 136.68518 | 5356 ft | 179 kts | 344° |
| 2026-05-04 14:33 | 34.91878 | 136.68234 | 5035 ft | 173 kts | 344° |
| 2026-05-04 14:33 | 34.93031 | 136.67956 | 4762 ft | 165 kts | 345° |
| 2026-05-04 14:33 | 34.94131 | 136.67689 | 4557 ft | 160 kts | 345° |
| 2026-05-04 14:34 | 34.95229 | 136.67631 | 4337 ft | 155 kts | 358° |
| 2026-05-04 14:34 | 34.96262 | 136.68136 | 3885 ft | 172 kts | 31° |
| 2026-05-04 14:34 | 34.97004 | 136.69369 | 3396 ft | 193 kts | 59° |
| 2026-05-04 14:34 | 34.97147 | 136.71078 | 2783 ft | 219 kts | 95° |
| 2026-05-04 14:35 | 34.96477 | 136.72822 | 2223 ft | 231 kts | 121° |
| 2026-05-04 14:35 | 34.95580 | 136.74397 | 1944 ft | 220 kts | 120° |
| 2026-05-04 14:35 | 34.94754 | 136.75863 | 1802 ft | 204 kts | 120° |
| 2026-05-04 14:35 | 34.93983 | 136.77254 | 1516 ft | 192 kts | 120° |
| 2026-05-04 14:36 | 34.93175 | 136.78560 | 1485 ft | 191 kts | 139° |
| 2026-05-04 14:36 | 34.92006 | 136.79100 | 1479 ft | 177 kts | 176° |
| 2026-05-04 14:36 | 34.90768 | 136.79359 | 1199 ft | 185 kts | 172° |
| 2026-05-04 14:36 | 34.89536 | 136.79675 | 836 ft | 175 kts | 172° |
| 2026-05-04 14:37 | 34.88348 | 136.79969 | 390 ft | 174 kts | 174° |
| 2026-05-04 14:37 | 34.87179 | 136.80214 | 72 ft | 165 kts | 173° |
| 2026-05-04 14:37 | 34.86155 | 136.80454 | 29 ft | 123 kts | 172° |
| 2026-05-04 14:37 | 34.85526 | 136.80604 | 25 ft | 72 kts | 170° |
| 2026-05-04 14:38 | 34.85260 | 136.80686 | 29 ft | 24 kts | 157° |
| 2026-05-04 14:38 | 34.85123 | 136.80788 | 27 ft | 23 kts | 143° |
| 2026-05-04 14:38 | 34.85009 | 136.80911 | 27 ft | 22 kts | 139° |
| 2026-05-04 14:38 | 34.84956 | 136.81031 | 27 ft | 14 kts | 80° |
| 2026-05-04 14:39 | 34.85026 | 136.81098 | 27 ft | 14 kts | 21° |
| 2026-05-04 14:39 | 34.85061 | 136.81131 | 27 ft | 2 kts | 66° |
| 2026-05-04 14:39 | 34.85061 | 136.81161 | 27 ft | 9 kts | 93° |
| 2026-05-04 14:40 | 34.85116 | 136.81390 | 27 ft | 15 kts | 22° |
| 2026-05-04 14:40 | 34.85214 | 136.81372 | 27 ft | 14 kts | 347° |
| 2026-05-04 14:40 | 34.85308 | 136.81354 | 27 ft | 13 kts | 2° |
| 2026-05-04 14:40 | 34.85330 | 136.81366 | 27 ft | 0 kts | 47° |
| 2026-05-04 14:41 | 34.85344 | 136.81398 | 27 ft | 6 kts | 73° |
| 2026-05-04 14:41 | 34.85345 | 136.81402 | 27 ft | 0 kts | 79° |
| 2026-05-04 14:41 | 34.85343 | 136.81452 | 27 ft | 0 kts | 79° |